sensor_id;sensor_type;location;lat;lon;timestamp;P1;durP1;ratioP1;P2;durP2;ratioP2
26690;SDS011;14307;51.718;8.938;2024-03-06T00:00:24;149.77;;;60.13;;
26690;SDS011;14307;51.718;8.938;2024-03-06T00:02:50;141.63;;;59.92;;
26690;SDS011;14307;51.718;8.938;2024-03-06T00:05:18;146.05;;;57.88;;
26690;SDS011;14307;51.718;8.938;2024-03-06T00:07:45;141.20;;;59.08;;
26690;SDS011;14307;51.718;8.938;2024-03-06T00:10:12;139.02;;;55.30;;
26690;SDS011;14307;51.718;8.938;2024-03-06T00:12:39;138.18;;;58.42;;
26690;SDS011;14307;51.718;8.938;2024-03-06T00:15:06;145.05;;;59.35;;
26690;SDS011;14307;51.718;8.938;2024-03-06T00:17:34;151.90;;;59.15;;
26690;SDS011;14307;51.718;8.938;2024-03-06T00:20:02;112.60;;;50.38;;
26690;SDS011;14307;51.718;8.938;2024-03-06T00:22:31;113.07;;;49.17;;
26690;SDS011;14307;51.718;8.938;2024-03-06T00:24:59;98.85;;;46.88;;
26690;SDS011;14307;51.718;8.938;2024-03-06T00:27:26;100.68;;;46.78;;
26690;SDS011;14307;51.718;8.938;2024-03-06T00:29:53;98.68;;;47.08;;
26690;SDS011;14307;51.718;8.938;2024-03-06T00:32:20;81.00;;;40.67;;
26690;SDS011;14307;51.718;8.938;2024-03-06T00:34:49;93.60;;;41.90;;
26690;SDS011;14307;51.718;8.938;2024-03-06T00:37:17;101.43;;;49.10;;
26690;SDS011;14307;51.718;8.938;2024-03-06T00:39:44;93.93;;;44.53;;
26690;SDS011;14307;51.718;8.938;2024-03-06T00:42:11;104.78;;;46.70;;
26690;SDS011;14307;51.718;8.938;2024-03-06T00:44:40;107.70;;;48.00;;
26690;SDS011;14307;51.718;8.938;2024-03-06T00:47:07;100.97;;;47.60;;
26690;SDS011;14307;51.718;8.938;2024-03-06T00:49:34;106.22;;;47.45;;
26690;SDS011;14307;51.718;8.938;2024-03-06T00:52:02;92.30;;;44.25;;
26690;SDS011;14307;51.718;8.938;2024-03-06T00:54:30;100.72;;;45.60;;
26690;SDS011;14307;51.718;8.938;2024-03-06T00:56:58;107.43;;;47.65;;
26690;SDS011;14307;51.718;8.938;2024-03-06T00:59:26;110.53;;;48.90;;
26690;SDS011;14307;51.718;8.938;2024-03-06T01:01:53;112.72;;;49.65;;
26690;SDS011;14307;51.718;8.938;2024-03-06T01:04:23;116.93;;;51.85;;
26690;SDS011;14307;51.718;8.938;2024-03-06T01:06:50;114.65;;;50.50;;
26690;SDS011;14307;51.718;8.938;2024-03-06T01:09:18;115.68;;;49.85;;
26690;SDS011;14307;51.718;8.938;2024-03-06T01:11:45;118.70;;;50.85;;
26690;SDS011;14307;51.718;8.938;2024-03-06T01:14:14;115.07;;;51.30;;
26690;SDS011;14307;51.718;8.938;2024-03-06T01:16:41;123.65;;;51.10;;
26690;SDS011;14307;51.718;8.938;2024-03-06T01:19:08;110.00;;;47.72;;
26690;SDS011;14307;51.718;8.938;2024-03-06T01:21:35;133.75;;;52.55;;
26690;SDS011;14307;51.718;8.938;2024-03-06T01:24:02;127.70;;;53.78;;
26690;SDS011;14307;51.718;8.938;2024-03-06T01:26:29;134.00;;;56.40;;
26690;SDS011;14307;51.718;8.938;2024-03-06T01:28:57;134.45;;;56.35;;
26690;SDS011;14307;51.718;8.938;2024-03-06T01:31:24;137.30;;;57.22;;
26690;SDS011;14307;51.718;8.938;2024-03-06T01:33:51;141.45;;;56.72;;
26690;SDS011;14307;51.718;8.938;2024-03-06T01:36:18;139.07;;;55.95;;
26690;SDS011;14307;51.718;8.938;2024-03-06T01:38:45;135.35;;;56.25;;
26690;SDS011;14307;51.718;8.938;2024-03-06T01:41:14;151.50;;;59.33;;
26690;SDS011;14307;51.718;8.938;2024-03-06T01:43:41;160.32;;;59.33;;
26690;SDS011;14307;51.718;8.938;2024-03-06T01:46:08;156.80;;;59.15;;
26690;SDS011;14307;51.718;8.938;2024-03-06T01:48:35;142.02;;;59.20;;
26690;SDS011;14307;51.718;8.938;2024-03-06T01:51:05;157.63;;;59.70;;
26690;SDS011;14307;51.718;8.938;2024-03-06T01:53:33;149.80;;;57.97;;
26690;SDS011;14307;51.718;8.938;2024-03-06T01:56:01;145.27;;;59.95;;
26690;SDS011;14307;51.718;8.938;2024-03-06T01:58:31;149.68;;;62.10;;
26690;SDS011;14307;51.718;8.938;2024-03-06T02:01:00;163.48;;;59.65;;
26690;SDS011;14307;51.718;8.938;2024-03-06T02:03:29;145.55;;;59.35;;
26690;SDS011;14307;51.718;8.938;2024-03-06T02:05:58;153.35;;;60.80;;
26690;SDS011;14307;51.718;8.938;2024-03-06T02:08:28;154.57;;;59.45;;
26690;SDS011;14307;51.718;8.938;2024-03-06T02:10:56;159.52;;;61.30;;
26690;SDS011;14307;51.718;8.938;2024-03-06T02:13:22;152.18;;;61.08;;
26690;SDS011;14307;51.718;8.938;2024-03-06T02:15:50;156.98;;;61.30;;
26690;SDS011;14307;51.718;8.938;2024-03-06T02:18:17;166.35;;;58.88;;
26690;SDS011;14307;51.718;8.938;2024-03-06T02:20:44;163.77;;;60.50;;
26690;SDS011;14307;51.718;8.938;2024-03-06T02:23:12;178.18;;;62.25;;
26690;SDS011;14307;51.718;8.938;2024-03-06T02:25:41;189.68;;;61.25;;
26690;SDS011;14307;51.718;8.938;2024-03-06T02:28:08;158.43;;;61.35;;
26690;SDS011;14307;51.718;8.938;2024-03-06T02:30:36;149.63;;;62.70;;
26690;SDS011;14307;51.718;8.938;2024-03-06T02:33:04;152.52;;;59.65;;
26690;SDS011;14307;51.718;8.938;2024-03-06T02:35:33;164.40;;;64.05;;
26690;SDS011;14307;51.718;8.938;2024-03-06T02:38:03;164.82;;;62.83;;
26690;SDS011;14307;51.718;8.938;2024-03-06T02:40:31;151.23;;;60.88;;
26690;SDS011;14307;51.718;8.938;2024-03-06T02:42:59;150.52;;;61.78;;
26690;SDS011;14307;51.718;8.938;2024-03-06T02:45:26;166.02;;;63.63;;
26690;SDS011;14307;51.718;8.938;2024-03-06T02:47:53;167.73;;;63.08;;
26690;SDS011;14307;51.718;8.938;2024-03-06T02:50:21;169.95;;;65.78;;
26690;SDS011;14307;51.718;8.938;2024-03-06T02:52:49;179.57;;;65.40;;
26690;SDS011;14307;51.718;8.938;2024-03-06T02:55:18;163.05;;;63.50;;
26690;SDS011;14307;51.718;8.938;2024-03-06T02:57:46;155.15;;;62.17;;
26690;SDS011;14307;51.718;8.938;2024-03-06T03:00:13;149.45;;;61.70;;
26690;SDS011;14307;51.718;8.938;2024-03-06T03:02:42;165.20;;;61.70;;
26690;SDS011;14307;51.718;8.938;2024-03-06T03:05:10;158.65;;;60.97;;
26690;SDS011;14307;51.718;8.938;2024-03-06T03:07:37;157.32;;;59.83;;
26690;SDS011;14307;51.718;8.938;2024-03-06T03:10:04;158.57;;;62.67;;
26690;SDS011;14307;51.718;8.938;2024-03-06T03:12:32;165.35;;;64.97;;
26690;SDS011;14307;51.718;8.938;2024-03-06T03:15:00;161.75;;;60.85;;
26690;SDS011;14307;51.718;8.938;2024-03-06T03:17:28;151.93;;;59.72;;
26690;SDS011;14307;51.718;8.938;2024-03-06T03:19:55;143.25;;;59.15;;
26690;SDS011;14307;51.718;8.938;2024-03-06T03:22:22;158.48;;;61.25;;
26690;SDS011;14307;51.718;8.938;2024-03-06T03:24:49;162.52;;;60.80;;
26690;SDS011;14307;51.718;8.938;2024-03-06T03:27:16;142.50;;;60.38;;
26690;SDS011;14307;51.718;8.938;2024-03-06T03:29:43;163.55;;;59.95;;
26690;SDS011;14307;51.718;8.938;2024-03-06T03:32:10;171.93;;;66.97;;
26690;SDS011;14307;51.718;8.938;2024-03-06T03:34:37;154.25;;;62.00;;
26690;SDS011;14307;51.718;8.938;2024-03-06T03:37:05;153.73;;;60.20;;
26690;SDS011;14307;51.718;8.938;2024-03-06T03:39:32;163.82;;;65.05;;
26690;SDS011;14307;51.718;8.938;2024-03-06T03:41:59;164.35;;;64.53;;
26690;SDS011;14307;51.718;8.938;2024-03-06T03:44:27;202.73;;;69.60;;
26690;SDS011;14307;51.718;8.938;2024-03-06T03:46:54;192.25;;;69.78;;
26690;SDS011;14307;51.718;8.938;2024-03-06T03:49:21;173.73;;;69.05;;
26690;SDS011;14307;51.718;8.938;2024-03-06T03:51:49;169.77;;;68.72;;
26690;SDS011;14307;51.718;8.938;2024-03-06T03:54:16;191.68;;;70.57;;
26690;SDS011;14307;51.718;8.938;2024-03-06T03:56:43;196.35;;;69.65;;
26690;SDS011;14307;51.718;8.938;2024-03-06T03:59:10;171.93;;;69.43;;
26690;SDS011;14307;51.718;8.938;2024-03-06T04:01:37;217.57;;;73.57;;
26690;SDS011;14307;51.718;8.938;2024-03-06T04:04:04;195.10;;;73.55;;
26690;SDS011;14307;51.718;8.938;2024-03-06T04:06:33;189.43;;;71.95;;
26690;SDS011;14307;51.718;8.938;2024-03-06T04:09:00;205.68;;;75.82;;
26690;SDS011;14307;51.718;8.938;2024-03-06T04:11:29;190.55;;;75.25;;
26690;SDS011;14307;51.718;8.938;2024-03-06T04:13:56;186.75;;;73.50;;
26690;SDS011;14307;51.718;8.938;2024-03-06T04:16:23;188.65;;;69.80;;
26690;SDS011;14307;51.718;8.938;2024-03-06T04:18:50;187.00;;;70.78;;
26690;SDS011;14307;51.718;8.938;2024-03-06T04:21:18;194.20;;;71.97;;
26690;SDS011;14307;51.718;8.938;2024-03-06T04:23:45;193.88;;;72.82;;
26690;SDS011;14307;51.718;8.938;2024-03-06T04:26:11;196.88;;;73.85;;
26690;SDS011;14307;51.718;8.938;2024-03-06T04:28:39;191.98;;;71.32;;
26690;SDS011;14307;51.718;8.938;2024-03-06T04:31:07;207.95;;;75.80;;
26690;SDS011;14307;51.718;8.938;2024-03-06T04:33:34;194.60;;;73.65;;
26690;SDS011;14307;51.718;8.938;2024-03-06T04:36:02;216.20;;;76.45;;
26690;SDS011;14307;51.718;8.938;2024-03-06T04:38:30;221.27;;;78.22;;
26690;SDS011;14307;51.718;8.938;2024-03-06T04:40:58;222.25;;;78.22;;
26690;SDS011;14307;51.718;8.938;2024-03-06T04:43:26;231.77;;;80.22;;
26690;SDS011;14307;51.718;8.938;2024-03-06T04:45:53;234.27;;;83.63;;
26690;SDS011;14307;51.718;8.938;2024-03-06T04:48:20;247.85;;;83.38;;
26690;SDS011;14307;51.718;8.938;2024-03-06T04:50:47;243.40;;;81.75;;
26690;SDS011;14307;51.718;8.938;2024-03-06T04:53:14;236.57;;;83.30;;
26690;SDS011;14307;51.718;8.938;2024-03-06T04:55:42;240.20;;;82.07;;
26690;SDS011;14307;51.718;8.938;2024-03-06T04:58:09;231.07;;;82.85;;
26690;SDS011;14307;51.718;8.938;2024-03-06T05:00:36;222.73;;;79.45;;
26690;SDS011;14307;51.718;8.938;2024-03-06T05:03:03;215.63;;;81.30;;
26690;SDS011;14307;51.718;8.938;2024-03-06T05:05:48;214.65;;;80.50;;
26690;SDS011;14307;51.718;8.938;2024-03-06T05:08:32;200.57;;;76.82;;
26690;SDS011;14307;51.718;8.938;2024-03-06T05:11:17;223.80;;;79.85;;
26690;SDS011;14307;51.718;8.938;2024-03-06T05:14:02;203.43;;;76.82;;
26690;SDS011;14307;51.718;8.938;2024-03-06T05:16:46;211.65;;;76.85;;
26690;SDS011;14307;51.718;8.938;2024-03-06T05:19:31;198.80;;;76.20;;
26690;SDS011;14307;51.718;8.938;2024-03-06T05:22:16;192.60;;;75.57;;
26690;SDS011;14307;51.718;8.938;2024-03-06T05:25:00;185.15;;;74.53;;
26690;SDS011;14307;51.718;8.938;2024-03-06T05:27:45;181.25;;;72.32;;
26690;SDS011;14307;51.718;8.938;2024-03-06T05:30:29;182.10;;;72.85;;
26690;SDS011;14307;51.718;8.938;2024-03-06T05:33:13;179.83;;;73.50;;
26690;SDS011;14307;51.718;8.938;2024-03-06T05:35:58;213.40;;;78.75;;
26690;SDS011;14307;51.718;8.938;2024-03-06T05:38:43;184.15;;;75.22;;
26690;SDS011;14307;51.718;8.938;2024-03-06T05:41:33;194.25;;;77.28;;
26690;SDS011;14307;51.718;8.938;2024-03-06T05:44:17;191.52;;;74.30;;
26690;SDS011;14307;51.718;8.938;2024-03-06T05:49:47;197.13;;;74.80;;
26690;SDS011;14307;51.718;8.938;2024-03-06T05:52:31;201.98;;;76.93;;
26690;SDS011;14307;51.718;8.938;2024-03-06T05:55:16;201.55;;;78.55;;
26690;SDS011;14307;51.718;8.938;2024-03-06T05:58:01;207.40;;;77.40;;
26690;SDS011;14307;51.718;8.938;2024-03-06T06:00:37;224.15;;;84.80;;
26690;SDS011;14307;51.718;8.938;2024-03-06T06:03:06;220.73;;;81.53;;
26690;SDS011;14307;51.718;8.938;2024-03-06T06:05:34;237.93;;;84.07;;
26690;SDS011;14307;51.718;8.938;2024-03-06T06:08:03;227.95;;;85.22;;
26690;SDS011;14307;51.718;8.938;2024-03-06T06:10:31;228.15;;;82.05;;
26690;SDS011;14307;51.718;8.938;2024-03-06T06:12:59;238.35;;;87.88;;
26690;SDS011;14307;51.718;8.938;2024-03-06T06:15:27;269.50;;;90.50;;
26690;SDS011;14307;51.718;8.938;2024-03-06T06:17:54;266.30;;;89.72;;
26690;SDS011;14307;51.718;8.938;2024-03-06T06:20:21;269.52;;;94.45;;
26690;SDS011;14307;51.718;8.938;2024-03-06T06:22:48;262.73;;;92.68;;
26690;SDS011;14307;51.718;8.938;2024-03-06T06:25:15;281.70;;;90.40;;
26690;SDS011;14307;51.718;8.938;2024-03-06T06:27:42;280.10;;;93.25;;
26690;SDS011;14307;51.718;8.938;2024-03-06T06:30:09;271.77;;;92.50;;
26690;SDS011;14307;51.718;8.938;2024-03-06T06:32:39;287.77;;;95.40;;
26690;SDS011;14307;51.718;8.938;2024-03-06T06:35:08;304.30;;;93.47;;
26690;SDS011;14307;51.718;8.938;2024-03-06T06:37:37;285.77;;;96.18;;
26690;SDS011;14307;51.718;8.938;2024-03-06T06:40:05;292.35;;;94.32;;
26690;SDS011;14307;51.718;8.938;2024-03-06T06:42:34;284.10;;;94.25;;
26690;SDS011;14307;51.718;8.938;2024-03-06T06:45:05;314.05;;;98.55;;
26690;SDS011;14307;51.718;8.938;2024-03-06T06:47:33;331.83;;;100.95;;
26690;SDS011;14307;51.718;8.938;2024-03-06T06:50:01;344.95;;;104.45;;
26690;SDS011;14307;51.718;8.938;2024-03-06T06:52:32;331.00;;;103.90;;
26690;SDS011;14307;51.718;8.938;2024-03-06T06:55:00;321.05;;;100.15;;
26690;SDS011;14307;51.718;8.938;2024-03-06T06:57:29;300.02;;;95.28;;
26690;SDS011;14307;51.718;8.938;2024-03-06T06:59:57;284.02;;;95.43;;
26690;SDS011;14307;51.718;8.938;2024-03-06T07:02:24;306.48;;;99.15;;
26690;SDS011;14307;51.718;8.938;2024-03-06T07:04:51;298.35;;;96.38;;
26690;SDS011;14307;51.718;8.938;2024-03-06T07:07:19;280.63;;;93.75;;
26690;SDS011;14307;51.718;8.938;2024-03-06T07:09:46;253.82;;;92.25;;
26690;SDS011;14307;51.718;8.938;2024-03-06T07:12:13;260.83;;;92.22;;
26690;SDS011;14307;51.718;8.938;2024-03-06T07:14:40;232.93;;;87.25;;
26690;SDS011;14307;51.718;8.938;2024-03-06T07:17:08;239.00;;;88.88;;
26690;SDS011;14307;51.718;8.938;2024-03-06T07:19:35;243.13;;;89.20;;
26690;SDS011;14307;51.718;8.938;2024-03-06T07:22:02;221.70;;;85.53;;
26690;SDS011;14307;51.718;8.938;2024-03-06T07:24:30;216.77;;;81.35;;
26690;SDS011;14307;51.718;8.938;2024-03-06T07:26:57;219.02;;;81.75;;
26690;SDS011;14307;51.718;8.938;2024-03-06T07:29:24;219.27;;;83.38;;
26690;SDS011;14307;51.718;8.938;2024-03-06T07:31:51;208.70;;;80.00;;
26690;SDS011;14307;51.718;8.938;2024-03-06T07:34:19;206.25;;;78.38;;
26690;SDS011;14307;51.718;8.938;2024-03-06T07:36:50;200.75;;;79.18;;
26690;SDS011;14307;51.718;8.938;2024-03-06T07:39:18;213.50;;;80.75;;
26690;SDS011;14307;51.718;8.938;2024-03-06T07:41:46;221.13;;;81.25;;
26690;SDS011;14307;51.718;8.938;2024-03-06T07:44:13;226.15;;;86.38;;
26690;SDS011;14307;51.718;8.938;2024-03-06T07:46:40;222.80;;;82.63;;
26690;SDS011;14307;51.718;8.938;2024-03-06T07:49:07;211.18;;;80.32;;
26690;SDS011;14307;51.718;8.938;2024-03-06T07:51:35;214.82;;;83.85;;
26690;SDS011;14307;51.718;8.938;2024-03-06T07:54:02;216.65;;;80.25;;
26690;SDS011;14307;51.718;8.938;2024-03-06T07:56:30;203.93;;;79.43;;
26690;SDS011;14307;51.718;8.938;2024-03-06T07:58:57;198.13;;;77.97;;
26690;SDS011;14307;51.718;8.938;2024-03-06T08:01:24;208.68;;;77.50;;
26690;SDS011;14307;51.718;8.938;2024-03-06T08:03:52;185.48;;;76.85;;
26690;SDS011;14307;51.718;8.938;2024-03-06T08:06:20;215.43;;;77.60;;
26690;SDS011;14307;51.718;8.938;2024-03-06T08:08:47;185.27;;;75.10;;
26690;SDS011;14307;51.718;8.938;2024-03-06T08:11:14;203.43;;;81.45;;
26690;SDS011;14307;51.718;8.938;2024-03-06T08:13:43;203.35;;;79.65;;
26690;SDS011;14307;51.718;8.938;2024-03-06T08:16:10;212.30;;;83.47;;
26690;SDS011;14307;51.718;8.938;2024-03-06T08:18:37;202.05;;;81.88;;
26690;SDS011;14307;51.718;8.938;2024-03-06T08:21:05;192.40;;;75.22;;
26690;SDS011;14307;51.718;8.938;2024-03-06T08:23:33;195.23;;;77.95;;
26690;SDS011;14307;51.718;8.938;2024-03-06T08:26:02;205.00;;;80.47;;
26690;SDS011;14307;51.718;8.938;2024-03-06T08:28:30;219.10;;;79.20;;
26690;SDS011;14307;51.718;8.938;2024-03-06T08:30:57;208.48;;;76.30;;
26690;SDS011;14307;51.718;8.938;2024-03-06T08:33:24;213.07;;;77.53;;
26690;SDS011;14307;51.718;8.938;2024-03-06T08:35:52;220.57;;;79.95;;
26690;SDS011;14307;51.718;8.938;2024-03-06T08:38:19;219.63;;;81.47;;
26690;SDS011;14307;51.718;8.938;2024-03-06T08:40:47;205.95;;;78.22;;
26690;SDS011;14307;51.718;8.938;2024-03-06T08:43:15;218.80;;;79.18;;
26690;SDS011;14307;51.718;8.938;2024-03-06T08:45:42;202.27;;;78.70;;
26690;SDS011;14307;51.718;8.938;2024-03-06T08:48:09;200.40;;;74.30;;
26690;SDS011;14307;51.718;8.938;2024-03-06T08:50:38;218.00;;;81.13;;
26690;SDS011;14307;51.718;8.938;2024-03-06T08:53:06;223.32;;;82.00;;
26690;SDS011;14307;51.718;8.938;2024-03-06T08:55:33;214.90;;;79.63;;
26690;SDS011;14307;51.718;8.938;2024-03-06T08:58:00;196.45;;;75.78;;
26690;SDS011;14307;51.718;8.938;2024-03-06T09:00:28;199.35;;;75.78;;
26690;SDS011;14307;51.718;8.938;2024-03-06T09:02:55;199.55;;;80.35;;
26690;SDS011;14307;51.718;8.938;2024-03-06T09:05:22;222.02;;;81.28;;
26690;SDS011;14307;51.718;8.938;2024-03-06T09:07:49;198.10;;;78.90;;
26690;SDS011;14307;51.718;8.938;2024-03-06T09:10:16;207.52;;;83.00;;
26690;SDS011;14307;51.718;8.938;2024-03-06T09:12:45;176.50;;;71.18;;
26690;SDS011;14307;51.718;8.938;2024-03-06T09:15:14;175.68;;;72.47;;
26690;SDS011;14307;51.718;8.938;2024-03-06T09:17:42;174.93;;;74.40;;
26690;SDS011;14307;51.718;8.938;2024-03-06T09:20:09;182.75;;;76.47;;
26690;SDS011;14307;51.718;8.938;2024-03-06T09:22:38;172.50;;;72.07;;
26690;SDS011;14307;51.718;8.938;2024-03-06T09:25:06;179.98;;;75.05;;
26690;SDS011;14307;51.718;8.938;2024-03-06T09:27:34;165.48;;;73.13;;
26690;SDS011;14307;51.718;8.938;2024-03-06T09:30:02;164.38;;;72.82;;
26690;SDS011;14307;51.718;8.938;2024-03-06T09:32:29;156.98;;;68.38;;
26690;SDS011;14307;51.718;8.938;2024-03-06T09:34:58;144.88;;;66.32;;
26690;SDS011;14307;51.718;8.938;2024-03-06T09:37:26;145.07;;;65.82;;
26690;SDS011;14307;51.718;8.938;2024-03-06T09:39:54;147.00;;;68.18;;
26690;SDS011;14307;51.718;8.938;2024-03-06T09:42:23;143.65;;;65.60;;
26690;SDS011;14307;51.718;8.938;2024-03-06T09:44:50;154.90;;;72.28;;
26690;SDS011;14307;51.718;8.938;2024-03-06T09:47:19;150.07;;;70.88;;
26690;SDS011;14307;51.718;8.938;2024-03-06T09:49:52;142.93;;;69.47;;
26690;SDS011;14307;51.718;8.938;2024-03-06T09:52:23;140.40;;;65.80;;
26690;SDS011;14307;51.718;8.938;2024-03-06T09:54:53;139.20;;;68.88;;
26690;SDS011;14307;51.718;8.938;2024-03-06T09:57:21;132.25;;;66.25;;
26690;SDS011;14307;51.718;8.938;2024-03-06T09:59:48;136.13;;;68.53;;
26690;SDS011;14307;51.718;8.938;2024-03-06T10:05:05;129.68;;;66.85;;
26690;SDS011;14307;51.718;8.938;2024-03-06T10:07:32;122.03;;;65.47;;
26690;SDS011;14307;51.718;8.938;2024-03-06T10:09:59;106.50;;;61.28;;
26690;SDS011;14307;51.718;8.938;2024-03-06T10:12:28;106.85;;;60.50;;
26690;SDS011;14307;51.718;8.938;2024-03-06T10:14:56;97.88;;;56.97;;
26690;SDS011;14307;51.718;8.938;2024-03-06T10:17:24;93.22;;;61.42;;
26690;SDS011;14307;51.718;8.938;2024-03-06T10:19:56;104.32;;;62.13;;
26690;SDS011;14307;51.718;8.938;2024-03-06T10:22:25;104.35;;;60.97;;
26690;SDS011;14307;51.718;8.938;2024-03-06T10:24:55;99.85;;;62.65;;
26690;SDS011;14307;51.718;8.938;2024-03-06T10:27:23;106.22;;;62.50;;
26690;SDS011;14307;51.718;8.938;2024-03-06T10:30:03;103.45;;;61.95;;
26690;SDS011;14307;51.718;8.938;2024-03-06T10:32:32;93.80;;;60.50;;
26690;SDS011;14307;51.718;8.938;2024-03-06T10:35:00;103.63;;;61.33;;
26690;SDS011;14307;51.718;8.938;2024-03-06T10:37:28;100.20;;;64.65;;
26690;SDS011;14307;51.718;8.938;2024-03-06T10:39:56;95.75;;;61.88;;
26690;SDS011;14307;51.718;8.938;2024-03-06T10:42:28;108.13;;;66.55;;
26690;SDS011;14307;51.718;8.938;2024-03-06T10:44:56;114.10;;;65.15;;
26690;SDS011;14307;51.718;8.938;2024-03-06T10:47:27;121.43;;;64.07;;
26690;SDS011;14307;51.718;8.938;2024-03-06T10:49:55;114.57;;;64.43;;
26690;SDS011;14307;51.718;8.938;2024-03-06T10:52:31;107.07;;;59.55;;
26690;SDS011;14307;51.718;8.938;2024-03-06T10:55:01;122.75;;;61.47;;
26690;SDS011;14307;51.718;8.938;2024-03-06T10:57:30;120.95;;;60.92;;
26690;SDS011;14307;51.718;8.938;2024-03-06T10:59:57;116.03;;;60.70;;
26690;SDS011;14307;51.718;8.938;2024-03-06T11:02:31;114.97;;;59.92;;
26690;SDS011;14307;51.718;8.938;2024-03-06T11:04:59;122.03;;;61.75;;
26690;SDS011;14307;51.718;8.938;2024-03-06T11:07:28;115.75;;;58.70;;
26690;SDS011;14307;51.718;8.938;2024-03-06T11:09:57;122.18;;;60.45;;
26690;SDS011;14307;51.718;8.938;2024-03-06T11:15:14;114.90;;;57.17;;
26690;SDS011;14307;51.718;8.938;2024-03-06T11:17:43;115.75;;;59.15;;
26690;SDS011;14307;51.718;8.938;2024-03-06T11:20:16;110.32;;;57.97;;
26690;SDS011;14307;51.718;8.938;2024-03-06T11:28:18;95.32;;;55.38;;
26690;SDS011;14307;51.718;8.938;2024-03-06T11:33:45;89.78;;;51.75;;
26690;SDS011;14307;51.718;8.938;2024-03-06T11:36:18;91.30;;;52.10;;
26690;SDS011;14307;51.718;8.938;2024-03-06T11:41:28;84.47;;;51.67;;
26690;SDS011;14307;51.718;8.938;2024-03-06T11:43:59;92.28;;;54.35;;
26690;SDS011;14307;51.718;8.938;2024-03-06T11:49:28;90.82;;;52.15;;
26690;SDS011;14307;51.718;8.938;2024-03-06T11:52:02;91.38;;;51.10;;
26690;SDS011;14307;51.718;8.938;2024-03-06T11:54:40;85.50;;;49.22;;
26690;SDS011;14307;51.718;8.938;2024-03-06T11:57:08;84.10;;;49.65;;
26690;SDS011;14307;51.718;8.938;2024-03-06T11:59:36;91.05;;;55.00;;
26690;SDS011;14307;51.718;8.938;2024-03-06T12:02:06;86.50;;;52.08;;
26690;SDS011;14307;51.718;8.938;2024-03-06T12:04:35;84.78;;;55.20;;
26690;SDS011;14307;51.718;8.938;2024-03-06T12:07:06;82.63;;;51.55;;
26690;SDS011;14307;51.718;8.938;2024-03-06T12:09:34;84.55;;;54.13;;
26690;SDS011;14307;51.718;8.938;2024-03-06T12:12:08;91.85;;;54.30;;
26690;SDS011;14307;51.718;8.938;2024-03-06T12:14:36;99.82;;;58.60;;
26690;SDS011;14307;51.718;8.938;2024-03-06T12:17:06;93.65;;;57.22;;
26690;SDS011;14307;51.718;8.938;2024-03-06T12:19:37;87.22;;;55.28;;
26690;SDS011;14307;51.718;8.938;2024-03-06T12:22:05;82.05;;;52.25;;
26690;SDS011;14307;51.718;8.938;2024-03-06T12:24:33;80.15;;;51.03;;
26690;SDS011;14307;51.718;8.938;2024-03-06T12:27:02;84.30;;;54.15;;
26690;SDS011;14307;51.718;8.938;2024-03-06T12:29:31;81.63;;;53.67;;
26690;SDS011;14307;51.718;8.938;2024-03-06T12:31:59;87.47;;;55.88;;
26690;SDS011;14307;51.718;8.938;2024-03-06T12:34:27;95.05;;;57.75;;
26690;SDS011;14307;51.718;8.938;2024-03-06T12:37:07;89.75;;;60.75;;
26690;SDS011;14307;51.718;8.938;2024-03-06T12:39:38;102.53;;;61.20;;
26690;SDS011;14307;51.718;8.938;2024-03-06T12:42:09;88.07;;;59.30;;
26690;SDS011;14307;51.718;8.938;2024-03-06T12:44:38;91.30;;;59.45;;
26690;SDS011;14307;51.718;8.938;2024-03-06T12:47:06;94.15;;;61.47;;
26690;SDS011;14307;51.718;8.938;2024-03-06T12:49:33;89.15;;;58.50;;
26690;SDS011;14307;51.718;8.938;2024-03-06T12:52:00;93.13;;;62.85;;
26690;SDS011;14307;51.718;8.938;2024-03-06T12:54:31;88.35;;;60.10;;
26690;SDS011;14307;51.718;8.938;2024-03-06T12:56:58;74.28;;;56.63;;
26690;SDS011;14307;51.718;8.938;2024-03-06T12:59:26;79.55;;;57.30;;
26690;SDS011;14307;51.718;8.938;2024-03-06T13:01:53;82.60;;;57.63;;
26690;SDS011;14307;51.718;8.938;2024-03-06T13:04:21;84.07;;;57.10;;
26690;SDS011;14307;51.718;8.938;2024-03-06T13:06:48;82.18;;;59.35;;
26690;SDS011;14307;51.718;8.938;2024-03-06T13:09:15;82.93;;;59.40;;
26690;SDS011;14307;51.718;8.938;2024-03-06T13:11:42;92.45;;;61.30;;
26690;SDS011;14307;51.718;8.938;2024-03-06T13:14:10;88.20;;;60.15;;
26690;SDS011;14307;51.718;8.938;2024-03-06T13:16:39;92.55;;;61.78;;
26690;SDS011;14307;51.718;8.938;2024-03-06T13:19:06;90.85;;;63.70;;
26690;SDS011;14307;51.718;8.938;2024-03-06T13:21:34;84.60;;;62.75;;
26690;SDS011;14307;51.718;8.938;2024-03-06T13:24:01;94.70;;;64.15;;
26690;SDS011;14307;51.718;8.938;2024-03-06T13:26:29;85.68;;;62.03;;
26690;SDS011;14307;51.718;8.938;2024-03-06T13:28:56;94.43;;;65.57;;
26690;SDS011;14307;51.718;8.938;2024-03-06T13:31:23;85.05;;;62.65;;
26690;SDS011;14307;51.718;8.938;2024-03-06T13:33:51;86.80;;;62.42;;
26690;SDS011;14307;51.718;8.938;2024-03-06T13:36:19;91.85;;;66.20;;
26690;SDS011;14307;51.718;8.938;2024-03-06T13:38:48;86.60;;;63.92;;
26690;SDS011;14307;51.718;8.938;2024-03-06T13:41:15;88.82;;;62.88;;
26690;SDS011;14307;51.718;8.938;2024-03-06T13:43:43;88.80;;;59.90;;
26690;SDS011;14307;51.718;8.938;2024-03-06T13:46:10;86.32;;;59.55;;
26690;SDS011;14307;51.718;8.938;2024-03-06T13:48:37;88.82;;;62.47;;
26690;SDS011;14307;51.718;8.938;2024-03-06T13:51:04;87.95;;;60.67;;
26690;SDS011;14307;51.718;8.938;2024-03-06T13:53:31;93.63;;;63.17;;
26690;SDS011;14307;51.718;8.938;2024-03-06T13:55:58;85.72;;;62.38;;
26690;SDS011;14307;51.718;8.938;2024-03-06T13:58:26;87.82;;;60.15;;
26690;SDS011;14307;51.718;8.938;2024-03-06T14:00:54;88.28;;;61.10;;
26690;SDS011;14307;51.718;8.938;2024-03-06T14:03:21;89.35;;;61.47;;
26690;SDS011;14307;51.718;8.938;2024-03-06T14:05:48;90.10;;;61.45;;
26690;SDS011;14307;51.718;8.938;2024-03-06T14:08:16;86.07;;;64.50;;
26690;SDS011;14307;51.718;8.938;2024-03-06T14:10:43;92.63;;;62.42;;
26690;SDS011;14307;51.718;8.938;2024-03-06T14:13:12;90.45;;;62.28;;
26690;SDS011;14307;51.718;8.938;2024-03-06T14:15:39;92.50;;;66.22;;
26690;SDS011;14307;51.718;8.938;2024-03-06T14:18:06;89.45;;;61.90;;
26690;SDS011;14307;51.718;8.938;2024-03-06T14:20:34;87.85;;;63.78;;
26690;SDS011;14307;51.718;8.938;2024-03-06T14:23:01;92.25;;;63.97;;
26690;SDS011;14307;51.718;8.938;2024-03-06T14:25:28;89.38;;;63.92;;
26690;SDS011;14307;51.718;8.938;2024-03-06T14:27:55;91.10;;;62.85;;
26690;SDS011;14307;51.718;8.938;2024-03-06T14:30:22;92.38;;;63.83;;
26690;SDS011;14307;51.718;8.938;2024-03-06T14:32:49;90.78;;;62.00;;
26690;SDS011;14307;51.718;8.938;2024-03-06T14:35:17;86.88;;;60.80;;
26690;SDS011;14307;51.718;8.938;2024-03-06T14:37:44;92.18;;;66.10;;
26690;SDS011;14307;51.718;8.938;2024-03-06T14:40:11;94.28;;;62.60;;
26690;SDS011;14307;51.718;8.938;2024-03-06T14:42:39;92.72;;;63.75;;